KBKD/BKD METAR and TAF weather

Enter ICAO airport designator
Station Type Date Time Source
KBKD METAR 2018/07/21 13:35 UTC NOAA

KBKD 211335Z AUTO 23006KT 7SM CLR 29/15 A3001 RMK AO2 T02930147


Station Type Date Time Source
KBKD Decoded METAR 2018/07/21 13:35 UTC NOAA

Station name not available
Jul 21, 2018 - 09:35 AM EDT / 2018.07.21 1335 UTC
Wind: from the SW (230 degrees) at 7 MPH (6 KT):0
Visibility: 7 mile(s):0
Sky conditions: clear
Temperature: 84.7 F (29.3 C)
Dew Point: 58.5 F (14.7 C)
Relative Humidity: 41%
Pressure (altimeter): 30.01 in. Hg (1016 hPa)
ob: KBKD 211335Z AUTO 23006KT 7SM CLR 29/15 A3001 RMK AO2 T02930147
cycle: 13

Station Type Date Time Source
KBKD TAF UTC NOAA

Error!


Example: see airport list